Terminal Aerodrome Forecast
Issued by NWS

Home | Current Version | Previous Version | Graphics & Text | Print | Product List | Glossary On
Versions: 1 2 3 4 5 6 7 8 9 10 11 12
000
FTUS43 KIWX 291721
TAFSBN
TAF
KSBN 291721Z 2918/3018 05011KT P6SM SCT025 BKN035
      TEMPO 2918/2922 4SM SHRA BKN025
     FM292300 04012KT P6SM VCSH OVC040
     FM300100 04011KT P6SM VCSH OVC010
     FM300800 04010KT 5SM -SHRA SCT004 OVC007
      TEMPO 3009/3013 3SM -SHRA BKN004 OVC007=

USA.gov is the U.S. government's official web portal to all federal, state and local government web resources and services.